1938 Tropical Cyclone NOT_NAMED (1938082S15159)


IBTrACS version v04r00. Visit IBTrACS website for data access.
Please direct all questions to the IBTrACS Q and A forum

Storm track - Intensity - Wind Radii - Intensity Data - Source Data - All data

Summary Information

Storm ID 1938082S15159
Start Mar 22 23Z
Max Intensity 45 kt (Mar 25 00Z), 992 mb (Mar 24 23Z)
End Mar 31 23Z
ATCF IDs
Track status Best track data.

Storm track plot

Map of storm track

Intensity plots

Map of storm track

Radial wind information

No radial wind information for this storm


Position and Intensity Table

BASIN ISO_TIME_________ NATURE LAT LON WMO PRES BOM PRES DS824 WIND DS824 PRES
degrees north degrees east mb mb kts mb
SP 1938-03-22 23:00:00 NR -14.95 158.65
SP 1938-03-23 00:00:00 TS -15.02 158.52
SP 03:00:00 TS -15.23 158.07
SP 06:00:00 TS -15.45 157.62
SP 09:00:00 TS -15.67 157.17
SP 11:00:00 TS -15.81 156.88
SP 12:00:00 TS -15.88 156.73
SP 15:00:00 TS -16.08 156.30
SP 18:00:00 TS -16.28 155.90
SP 21:00:00 TS -16.47 155.53
SP 23:00:00 TS -16.58 155.30
SP 1938-03-24 00:00:00 TS -16.64 155.20
SP 03:00:00 TS -16.78 154.91
SP 06:00:00 TS -16.92 154.66
SP 09:00:00 TS -17.04 154.43
SP 11:00:00 TS -17.12 154.28
SP 12:00:00 TS -17.16 154.21
SP 15:00:00 TS -17.27 154.00
SP 18:00:00 TS -17.38 153.80
SP 21:00:00 TS -17.48 153.59
SP 23:00:00 TS -17.55 153.46 992 992
SP 1938-03-25 00:00:00 TS -17.59 153.38 45 992
SP 03:00:00 TS -17.71 153.14
SP 06:00:00 TS -17.82 152.89
SP 09:00:00 TS -17.94 152.64
SP 11:00:00 TS -18.02 152.48
SP 12:00:00 TS -18.06 152.39
SP 15:00:00 TS -18.20 152.15
SP 18:00:00 TS -18.33 151.92
SP 21:00:00 TS -18.47 151.69
SP 23:00:00 TS -18.55 151.56
SP 1938-03-26 00:00:00 TS -18.59 151.49
SP 03:00:00 TS -18.71 151.30
SP 06:00:00 TS -18.83 151.12
SP 09:00:00 TS -18.94 150.96
SP 11:00:00 TS -19.02 150.86
SP 12:00:00 TS -19.06 150.82
SP 15:00:00 TS -19.19 150.69
SP 18:00:00 TS -19.32 150.58
SP 21:00:00 TS -19.46 150.49
SP 23:00:00 TS -19.55 150.44
SP 1938-03-27 00:00:00 TS -19.60 150.41
SP 03:00:00 TS -19.75 150.33
SP 06:00:00 TS -19.89 150.28
SP 08:00:00 TS -19.99 150.27
SP 09:00:00 TS -20.04 150.27
SP 11:00:00 TS -20.13 150.29
SP 12:00:00 TS -20.18 150.31
SP 15:00:00 TS -20.33 150.39
SP 18:00:00 TS -20.47 150.50
SP 21:00:00 TS -20.60 150.63
SP 23:00:00 TS -20.69 150.72
SP 1938-03-28 00:00:00 TS -20.72 150.76
SP 03:00:00 TS -20.82 150.85
SP 06:00:00 TS -20.92 150.96
SP 09:00:00 TS -21.01 151.08
SP 11:00:00 TS -21.07 151.17
SP 12:00:00 TS -21.11 151.22
SP 15:00:00 TS -21.22 151.37
SP 18:00:00 TS -21.35 151.54
SP 21:00:00 TS -21.48 151.73
SP 23:00:00 TS -21.58 151.88
SP 1938-03-29 00:00:00 TS -21.63 151.95
SP 03:00:00 TS -21.78 152.19
SP 06:00:00 TS -21.93 152.46
SP 09:00:00 TS -22.10 152.73
SP 11:00:00 TS -22.22 152.92
SP 12:00:00 TS -22.28 153.01
SP 15:00:00 TS -22.46 153.28
SP 18:00:00 TS -22.67 153.55
SP 21:00:00 TS -22.90 153.82
SP 23:00:00 TS -23.07 154.00
SP 1938-03-30 00:00:00 TS -23.16 154.10
SP 03:00:00 TS -23.45 154.39
SP 06:00:00 TS -23.76 154.66
SP 08:00:00 TS -23.99 154.83
SP 09:00:00 TS -24.10 154.90
SP 11:00:00 TS -24.35 155.03
SP 12:00:00 TS -24.47 155.09
SP 15:00:00 TS -24.83 155.24
SP 18:00:00 TS -25.20 155.39
SP 21:00:00 TS -25.56 155.53
SP 23:00:00 TS -25.77 155.65
SP 1938-03-31 00:00:00 TS -25.86 155.71
SP 03:00:00 NR -26.14 155.95
SP 06:00:00 NR -26.44 156.22
SP 09:00:00 NR -26.73 156.55
SP 11:00:00 NR -26.92 156.79
SP 12:00:00 NR -27.01 156.92
SP 15:00:00 NR -27.26 157.32
SP 18:00:00 NR -27.51 157.75
SP 21:00:00 NR -27.74 158.20
SP 23:00:00 NR -27.90 158.50

Source Information

Agency Information
USA
TOKYO
CMA
HKO
NEWDELHI
REUNION
BOM IDCKMSTM0S.csv:Line=959:unnamed
NADI
WELLINGTON
DS824 aus_area.dat:95:NOT NAMED
TD9636 cons_worldwide_trop_cyclone_18710101-19891231-006:Line=2175
TD9635
NEUMANN
MLC

All available IBTrACS Data

SEASON BASIN SUBBASIN ISO_TIME_________ NATURE LAT LON WMO PRES WMO AGENCY DIST2LAND LANDFALL IFLAG USA SSHS BOM LAT BOM LON BOM PRES BOM PRES_METHOD DS824 LAT DS824 LON DS824 STAGE DS824 WIND DS824 PRES TD9636 LAT TD9636 LON TD9636 STAGE STORM SPEED STORM DIR
Year degrees north degrees east mb km km 1 degrees north degrees east mb degrees north degrees east kts mb degrees north degrees east kts degrees
1938 SP EA 1938-03-22 23:00:00 NR -14.95 158.65 bom 569 584 ______O___O___ -1 -14.90 158.70 -15.00 158.60 7 9 242
1938 SP EA 1938-03-23 00:00:00 TS -15.02 158.52 590 590 ______P__OP___ -1 -14.98 158.54 -15.00 158.60 TC -15.07 158.46 7 9 243
1938 SP EA 03:00:00 TS -15.23 158.07 632 632 ______P__PP___ -1 -15.22 158.07 -15.22 158.12 TC -15.26 158.04 7 10 244
1938 SP EA 06:00:00 TS -15.45 157.62 681 681 ______P__PP___ -1 -15.45 157.60 -15.44 157.65 TC -15.46 157.61 7 10 244
1938 SP EA 09:00:00 TS -15.67 157.17 718 718 ______P__PP___ -1 -15.68 157.14 -15.66 157.19 TC -15.66 157.19 7 10 243
1938 SP EA 11:00:00 TS -15.81 156.88 741 741 ______P__PO___ -1 -15.82 156.84 -15.80 156.89 TC -15.80 156.90 7 10 243
1938 SP EA 12:00:00 TS -15.88 156.73 761 761 ______P__PP___ -1 -15.90 156.69 -15.86 156.74 TC -15.87 156.76 7 9 243
1938 SP EA 15:00:00 TS -16.08 156.30 800 800 ______P__PP___ -1 -16.11 156.27 -16.07 156.31 TC -16.08 156.33 7 9 243
1938 SP EA 18:00:00 TS -16.28 155.90 841 824 ______P__PP___ -1 -16.30 155.88 -16.26 155.91 TC -16.29 155.91 7 8 243
1938 SP EA 21:00:00 TS -16.47 155.53 824 800 ______P__PP___ -1 -16.49 155.52 -16.43 155.54 TC -16.48 155.53 7 8 242
1938 SP EA 23:00:00 TS -16.58 155.30 bom 800 791 ______O__PO___ -1 -16.60 155.30 -16.55 155.31 TC -16.60 155.30 7 7 242
1938 SP EA 1938-03-24 00:00:00 TS -16.64 155.20 791 752 ______P__OP___ -1 -16.65 155.20 -16.60 155.20 TC -16.65 155.20 7 6 242
1938 SP EA 03:00:00 TS -16.78 154.91 752 728 ______P__PP___ -1 -16.81 154.91 -16.75 154.90 TC -16.80 154.91 7 6 241
1938 SP EA 06:00:00 TS -16.92 154.66 728 695 ______P__PP___ -1 -16.94 154.66 -16.89 154.64 TC -16.92 154.67 7 5 241
1938 SP EA 09:00:00 TS -17.04 154.43 695 680 ______P__PP___ -1 -17.07 154.43 -17.02 154.40 TC -17.03 154.45 7 5 241
1938 SP EA 11:00:00 TS -17.12 154.28 680 671 ______P__PO___ -1 -17.15 154.29 -17.10 154.26 TC -17.10 154.30 7 5 241
1938 SP EA 12:00:00 TS -17.16 154.21 665 642 ______P__PP___ -1 -17.19 154.22 -17.14 154.19 TC -17.14 154.22 7 5 241
1938 SP EA 15:00:00 TS -17.27 154.00 642 618 ______P__PP___ -1 -17.30 154.03 -17.26 153.98 TC -17.24 153.99 7 5 241
1938 SP EA 18:00:00 TS -17.38 153.80 618 594 ______P__PP___ -1 -17.41 153.83 -17.37 153.79 TC -17.34 153.77 7 4 241
1938 SP EA 21:00:00 TS -17.48 153.59 594 585 ______P__PP___ -1 -17.52 153.64 -17.49 153.60 TC -17.44 153.55 7 4 241
1938 SP EA 23:00:00 TS -17.55 153.46 992 bom 579 570 ______O__PO___ -1 -17.60 153.50 992 4 -17.56 153.47 TC -17.50 153.40 7 5 242
1938 SP EA 1938-03-25 00:00:00 TS -17.59 153.38 570 537 ______P__OP___ -1 -17.64 153.42 -17.60 153.40 TC 45 992 -17.53 153.32 7 5 244
1938 SP EA 03:00:00 TS -17.71 153.14 537 513 ______P__PP___ -1 -17.77 153.15 -17.73 153.15 TC -17.62 153.10 7 5 244
1938 SP EA 06:00:00 TS -17.82 152.89 513 489 ______P__PP___ -1 -17.90 152.89 -17.85 152.90 TC -17.72 152.87 7 5 244
1938 SP EA 09:00:00 TS -17.94 152.64 481 466 ______P__PP___ -1 -18.02 152.62 -17.98 152.65 TC -17.82 152.65 7 5 243
1938 SP EA 11:00:00 TS -18.02 152.48 466 451 ______P__PO___ -1 -18.11 152.45 -18.06 152.48 TC -17.90 152.50 7 5 242
1938 SP EA 12:00:00 TS -18.06 152.39 451 427 ______P__PP___ -1 -18.15 152.36 -18.10 152.40 TC -17.94 152.42 7 5 240
1938 SP EA 15:00:00 TS -18.20 152.15 427 394 ______P__PP___ -1 -18.28 152.11 -18.23 152.15 TC -18.09 152.19 7 5 240
1938 SP EA 18:00:00 TS -18.33 151.92 394 364 ______P__PP___ -1 -18.40 151.86 -18.35 151.92 TC -18.24 151.96 7 5 238
1938 SP EA 21:00:00 TS -18.47 151.69 364 356 ______P__PP___ -1 -18.52 151.64 -18.48 151.70 TC -18.40 151.74 7 5 237
1938 SP EA 23:00:00 TS -18.55 151.56 bom 349 341 ______O__PO___ -1 -18.60 151.50 -18.56 151.57 TC -18.50 151.60 7 5 236
1938 SP EA 1938-03-26 00:00:00 TS -18.59 151.49 341 317 ______P__OP___ -1 -18.64 151.44 -18.60 151.50 TC -18.54 151.53 7 4 237
1938 SP EA 03:00:00 TS -18.71 151.30 317 293 ______P__PP___ -1 -18.74 151.26 -18.72 151.30 TC -18.67 151.33 7 4 236
1938 SP EA 06:00:00 TS -18.83 151.12 293 278 ______P__PP___ -1 -18.84 151.09 -18.85 151.11 TC -18.79 151.15 7 4 234
1938 SP EA 09:00:00 TS -18.94 150.96 278 263 ______P__PP___ -1 -18.94 150.95 -18.97 150.94 TC -18.91 150.99 7 4 231
1938 SP EA 11:00:00 TS -19.02 150.86 263 248 ______P__PO___ -1 -19.01 150.86 -19.06 150.83 TC -19.00 150.90 7 4 228
1938 SP EA 12:00:00 TS -19.06 150.82 248 233 ______P__PP___ -1 -19.04 150.81 -19.10 150.79 TC -19.05 150.85 7 4 224
1938 SP EA 15:00:00 TS -19.19 150.69 233 219 ______P__PP___ -1 -19.15 150.69 -19.22 150.65 TC -19.19 150.73 7 3 221
1938 SP EA 18:00:00 TS -19.32 150.58 219 198 ______P__PP___ -1 -19.27 150.58 -19.35 150.54 TC -19.34 150.62 7 3 215
1938 SP EA 21:00:00 TS -19.46 150.49 198 189 ______P__PP___ -1 -19.40 150.47 -19.47 150.46 TC -19.50 150.54 7 3 209
1938 SP EA 23:00:00 TS -19.55 150.44 bom 184 184 ______O__PO___ -1 -19.50 150.40 -19.56 150.42 TC -19.60 150.50 7 3 209
1938 SP EA 1938-03-27 00:00:00 TS -19.60 150.41 184 170 ______P__OP___ -1 -19.55 150.35 -19.60 150.40 TC -19.65 150.47 7 3 208
1938 SP EA 03:00:00 TS -19.75 150.33 170 160 ______P__PP___ -1 -19.72 150.23 -19.72 150.36 TC -19.79 150.41 7 3 202
1938 SP EA 06:00:00 TS -19.89 150.28 160 156 ______P__PP___ -1 -19.89 150.13 -19.85 150.34 TC -19.94 150.37 7 3 192
1938 SP EA 08:00:00 TS -19.99 150.27 bom 156 156 ______O__PP___ -1 -20.00 150.10 -19.93 150.34 TC -20.04 150.37 7 3 0
1938 SP EA 09:00:00 TS -20.04 150.27 156 152 ______P__PP___ -1 -20.05 150.10 -19.97 150.35 TC -20.09 150.37 7 3 171
1938 SP EA 11:00:00 TS -20.13 150.29 152 149 ______P__PO___ -1 -20.14 150.11 -20.06 150.36 TC -20.20 150.40 7 3 163
1938 SP EA 12:00:00 TS -20.18 150.31 149 145 ______P__PP___ -1 -20.18 150.13 -20.10 150.38 TC -20.26 150.42 7 3 155
1938 SP EA 15:00:00 TS -20.33 150.39 153 147 ______P__PP___ -1 -20.31 150.22 -20.22 150.43 TC -20.45 150.52 7 3 148
1938 SP EA 18:00:00 TS -20.47 150.50 150 150 ______P__PP___ -1 -20.42 150.34 -20.35 150.50 TC -20.63 150.66 7 4 140
1938 SP EA 21:00:00 TS -20.60 150.63 155 155 ______P__PP___ -1 -20.53 150.49 -20.47 150.59 TC -20.80 150.81 7 4 137
1938 SP EA 23:00:00 TS -20.69 150.72 bom 162 162 ______O__PO___ -1 -20.60 150.60 -20.56 150.66 TC -20.90 150.90 7 3 136
1938 SP EA 1938-03-28 00:00:00 TS -20.72 150.76 172 169 ______P__OP___ -1 -20.64 150.64 -20.60 150.70 TC -20.94 150.93 7 3 138
1938 SP EA 03:00:00 TS -20.82 150.85 179 168 ______P__PP___ -1 -20.74 150.75 -20.71 150.79 TC -21.02 151.03 7 3 135
1938 SP EA 06:00:00 TS -20.92 150.96 170 159 ______P__PP___ -1 -20.84 150.87 -20.83 150.90 TC -21.09 151.12 7 3 131
1938 SP EA 09:00:00 TS -21.01 151.08 161 151 ______P__PP___ -1 -20.94 151.00 -20.94 151.02 TC -21.15 151.22 7 3 129
1938 SP EA 11:00:00 TS -21.07 151.17 154 154 ______P__PO___ -1 -21.01 151.09 -21.02 151.11 TC -21.20 151.30 7 3 128
1938 SP EA 12:00:00 TS -21.11 151.22 154 147 ______P__PP___ -1 -21.04 151.14 -21.05 151.16 TC -21.23 151.34 7 4 129
1938 SP EA 15:00:00 TS -21.22 151.37 152 142 ______P__PP___ -1 -21.15 151.30 -21.18 151.32 TC -21.35 151.49 7 4 128
1938 SP EA 18:00:00 TS -21.35 151.54 148 144 ______P__PP___ -1 -21.27 151.47 -21.31 151.49 TC -21.47 151.66 7 4 127
1938 SP EA 21:00:00 TS -21.48 151.73 144 144 ______P__PP___ -1 -21.40 151.66 -21.45 151.69 TC -21.61 151.85 7 5 127
1938 SP EA 23:00:00 TS -21.58 151.88 bom 151 151 ______O__PO___ -1 -21.50 151.80 -21.55 151.83 TC -21.70 152.00 7 5 126
1938 SP EA 1938-03-29 00:00:00 TS -21.63 151.95 159 152 ______P__OP___ -1 -21.55 151.87 -21.60 151.90 TC -21.75 152.08 7 5 123
1938 SP EA 03:00:00 TS -21.78 152.19 164 164 ______P__PP___ -1 -21.70 152.09 -21.75 152.14 TC -21.89 152.35 7 6 123
1938 SP EA 06:00:00 TS -21.93 152.46 187 183 ______P__PP___ -1 -21.86 152.34 -21.90 152.40 TC -22.04 152.63 7 6 123
1938 SP EA 09:00:00 TS -22.10 152.73 200 200 ______P__PP___ -1 -22.04 152.60 -22.07 152.68 TC -22.19 152.92 7 6 124
1938 SP EA 11:00:00 TS -22.22 152.92 218 218 ______P__PO___ -1 -22.16 152.78 -22.19 152.87 TC -22.30 153.10 7 6 125
1938 SP EA 12:00:00 TS -22.28 153.01 227 227 ______P__PP___ -1 -22.23 152.88 -22.25 152.97 TC -22.35 153.18 7 6 126
1938 SP EA 15:00:00 TS -22.46 153.28 235 233 ______P__PP___ -1 -22.44 153.17 -22.45 153.26 TC -22.50 153.41 7 6 128
1938 SP EA 18:00:00 TS -22.67 153.55 236 218 ______P__PP___ -1 -22.67 153.47 -22.68 153.55 TC -22.66 153.63 7 7 131
1938 SP EA 21:00:00 TS -22.90 153.82 218 202 ______P__PP___ -1 -22.92 153.79 -22.92 153.83 TC -22.85 153.85 7 7 134
1938 SP EA 23:00:00 TS -23.07 154.00 bom 202 202 ______O__PO___ -1 -23.10 154.00 -23.10 154.01 TC -23.00 154.00 7 7 135
1938 SP EA 1938-03-30 00:00:00 TS -23.16 154.10 196 186 ______P__OP___ -1 -23.19 154.12 -23.20 154.10 TC -23.08 154.08 7 8 137
1938 SP EA 03:00:00 TS -23.45 154.39 192 180 ______P__PP___ -1 -23.47 154.47 -23.51 154.35 TC -23.37 154.34 7 8 140
1938 SP EA 06:00:00 TS -23.76 154.66 180 173 ______P__PP___ -1 -23.77 154.81 -23.84 154.57 TC -23.68 154.60 7 8 143
1938 SP EA 08:00:00 TS -23.99 154.83 bom 176 176 ______O__PP___ -1 -24.00 155.00 -24.08 154.71 TC -23.89 154.77 7 8 147
1938 SP EA 09:00:00 TS -24.10 154.90 179 175 ______P__PP___ -1 -24.12 155.07 -24.20 154.78 TC -23.99 154.85 7 8 152
1938 SP EA 11:00:00 TS -24.35 155.03 179 174 ______P__PO___ -1 -24.39 155.18 -24.45 154.92 TC -24.20 155.00 7 8 154
1938 SP EA 12:00:00 TS -24.47 155.09 180 177 ______P__PP___ -1 -24.53 155.23 -24.57 154.98 TC -24.29 155.06 7 8 158
1938 SP EA 15:00:00 TS -24.83 155.24 182 182 ______P__PP___ -1 -24.97 155.33 -24.97 155.17 TC -24.56 155.24 7 8 160
1938 SP EA 18:00:00 TS -25.20 155.39 202 202 ______P__PP___ -1 -25.41 155.41 -25.37 155.35 TC -24.83 155.40 7 8 160
1938 SP EA 21:00:00 TS -25.56 155.53 221 221 ______P__PP___ -1 -25.84 155.51 -25.78 155.53 TC -25.11 155.57 7 7 157
1938 SP EA 23:00:00 TS -25.77 155.65 bom 238 238 ______O__PO___ -1 -26.10 155.60 -26.06 155.64 TC -25.30 155.70 7 7 151
1938 SP EA 1938-03-31 00:00:00 TS -25.86 155.71 251 251 ______P__OP___ -1 -26.22 155.66 -26.20 155.70 TC -25.40 155.77 7 7 144
1938 SP EA 03:00:00 NR -26.14 155.95 278 278 ______P___P___ -1 -26.56 155.88 TC -25.72 156.01 7 7 142
1938 SP EA 06:00:00 NR -26.44 156.22 307 304 ______P___P___ -1 -26.84 156.17 TC -26.04 156.28 7 8 138
1938 SP EA 09:00:00 NR -26.73 156.55 328 328 ______P___P___ -1 -27.09 156.52 TC -26.38 156.58 7 8 133
1938 SP EA 11:00:00 NR -26.92 156.79 346 346 ______P___O___ -1 -27.24 156.78 TC -26.60 156.80 7 9 130
1938 SP EA 12:00:00 NR -27.01 156.92 351 351 ______P___P___ -1 -27.30 156.91 TC -26.71 156.92 7 9 126
1938 SP EA 15:00:00 NR -27.26 157.32 377 377 ______P___P___ -1 -27.49 157.34 TC -27.04 157.29 7 9 124
1938 SP EA 18:00:00 NR -27.51 157.75 410 410 ______P___P___ -1 -27.65 157.80 TC -27.36 157.69 7 9 122
1938 SP EA 21:00:00 NR -27.74 158.20 454 453 ______P___P___ -1 -27.80 158.28 TC -27.69 158.11 7 9 120
1938 SP EA 23:00:00 NR -27.90 158.50 bom 481 ______O___O___ -1 -27.90 158.60 TC -27.90 158.40 7 9 120